Terminal Aerodrome Forecast
Issued by NWS

Home | Current Version | Previous Version | Text Only | Print | Product List | Glossary On
Versions: 1 2 3 4 5 6 7 8 9 10 11 12 13 14 15 16
000
FTAK31 PAJN 301900 AAA
TAFAYA
TAF AMD
PAYA 301905Z 3019/3118 11012G24KT P6SM -RA BKN025 OVC035
     FM310200 13006KT P6SM -SHRA SCT015 BKN025 OVC040
     FM311000 08003KT 6SM -SHRA SCT015 OVC025
      AMD LTD TO CLD VIS AND WIND 3101/3110=

USA.gov is the U.S. government's official web portal to all federal, state and local government web resources and services.